Terminal Aerodrome Forecast
Issued by NWS Cleveland, OH

Home | Current Version | Previous Version | Graphics & Text | Print | Product List | Glossary On
Versions: 1 2 3 4 5 6 7 8 9 10 11 12 13 14 15 16 17 18 19 20 21 22 23 24 25 26 27 28 29 30 31
000
FTUS41 KCLE 190200 AAA
TAFCLE
TAF AMD
KCLE 190258Z 1903/2006 33011KT P6SM VCSH SCT018 BKN025 OVC035
      TEMPO 1903/1905 BKN018
     FM191400 30007KT P6SM BKN035
     FM191800 27007KT P6SM SCT035=

USA.gov is the U.S. government's official web portal to all federal, state and local government web resources and services.